Terminal Aerodrome Forecast
Issued by NWS Cleveland, OH

Home | Current Version | Previous Version | Text Only | Print | Product List | Glossary Off
Versions: 1 2 3 4 5 6 7 8 9 10 11 12 13 14 15 16 17 18 19 20 21 22

000
FTUS41 KCLE 250800 AAA
TAFCLE
TAF AMD
KCLE 250855Z 2509/2612 18010KT P6SM SCT150 BKN250
     FM251400 20015G22KT P6SM BKN060 OVC120
     FM252000 22018G25KT 6SM -SHRA VCTS BKN050CB OVC100
     FM252200 21012KT P6SM SCT050 BKN200
     FM260600 20007KT P6SM BKN200=

USA.gov is the U.S. government's official web portal to all federal, state and local government web resources and services.